ENRS/RET METAR and TAF weather

Enter ICAO airport designator
Station Type Date Time Source
ENRS METAR 2020/12/05 06:20 UTC NOAA

ENRS 050620Z 15006KT 9999 -RA FEW012 SCT015 BKN020 03/01 Q1004


Station Type Date Time Source
ENRS Decoded METAR 2020/12/05 06:20 UTC NOAA

Rost Flyplass, Norway (ENRS) 67-31N 012-06E
Dec 05, 2020 - 01:20 AM EST / 2020.12.05 0620 UTC
Wind: from the SSE (150 degrees) at 7 MPH (6 KT):0
Visibility: greater than 7 mile(s):0
Sky conditions: mostly cloudy
Weather: light rain
Temperature: 37 F (3 C)
Dew Point: 33 F (1 C)
Relative Humidity: 86%
Pressure (altimeter): 29.65 in. Hg (1004 hPa)
ob: ENRS 050620Z 15006KT 9999 -RA FEW012 SCT015 BKN020 03/01 Q1004
cycle: 6

Station Type Date Time Source
ENRS TAF UTC NOAA

Error!

Example: see airport list